createdAt,value
2018-08-07T00:01:10.044Z,24.52
2018-08-07T00:04:13.075Z,24.40
2018-08-07T00:07:16.056Z,24.42
2018-08-07T00:10:20.394Z,24.17
2018-08-07T00:13:23.367Z,24.01
2018-08-07T00:16:26.387Z,24.43
2018-08-07T00:19:29.499Z,24.31
2018-08-07T00:22:32.655Z,24.02
2018-08-07T00:25:35.757Z,24.25
2018-08-07T00:28:50.982Z,24.14
2018-08-07T00:32:15.053Z,24.25
2018-08-07T00:35:19.259Z,23.88
2018-08-07T00:38:22.292Z,23.72
2018-08-07T00:41:25.250Z,23.98
2018-08-07T00:44:28.293Z,23.81
2018-08-07T00:47:31.439Z,23.70
2018-08-07T00:50:34.577Z,23.72
2018-08-07T00:53:37.743Z,23.98
2018-08-07T00:56:40.863Z,23.71
2018-08-07T00:59:43.806Z,23.76
2018-08-07T01:02:46.776Z,23.92
2018-08-07T01:05:49.763Z,23.75
2018-08-07T01:08:52.716Z,23.46
2018-08-07T01:11:55.706Z,23.63
2018-08-07T01:14:58.667Z,23.59
2018-08-07T01:18:01.959Z,23.49
2018-08-07T01:21:05.176Z,23.56
2018-08-07T01:24:08.299Z,23.82
2018-08-07T01:27:11.300Z,23.80
2018-08-07T01:30:19.666Z,23.49
2018-08-07T01:33:25.631Z,23.11
2018-08-07T01:36:28.584Z,23.17
2018-08-07T01:39:31.668Z,23.22
2018-08-07T01:42:34.741Z,23.38
2018-08-07T01:45:37.785Z,23.28
2018-08-07T01:48:40.934Z,23.12
2018-08-07T01:51:43.936Z,23.16
2018-08-07T01:54:46.881Z,23.17
2018-08-07T01:57:49.875Z,23.21
2018-08-07T02:00:52.778Z,23.25
2018-08-07T02:03:55.693Z,23.33
2018-08-07T02:06:58.674Z,23.36
2018-08-07T02:10:01.990Z,23.52
2018-08-07T02:13:05.488Z,23.47
2018-08-07T02:16:08.470Z,23.47
2018-08-07T02:19:11.549Z,23.51
2018-08-07T02:22:14.515Z,23.54
2018-08-07T02:25:18.671Z,23.72
2018-08-07T02:28:21.596Z,23.42
2018-08-07T02:31:24.562Z,23.55
2018-08-07T02:34:27.464Z,23.93
2018-08-07T02:37:30.413Z,23.19
2018-08-07T02:40:33.412Z,23.01
2018-08-07T02:43:36.485Z,23.38
2018-08-07T02:46:39.769Z,23.46
2018-08-07T02:49:42.834Z,23.61
2018-08-07T02:52:45.952Z,23.53
2018-08-07T02:55:48.936Z,23.00
2018-08-07T02:58:51.925Z,23.06
2018-08-07T03:01:54.935Z,23.27
2018-08-07T03:04:57.874Z,23.16
2018-08-07T03:08:00.824Z,23.12
2018-08-07T03:11:04.109Z,22.44
2018-08-07T03:14:07.456Z,22.40
2018-08-07T03:17:10.493Z,22.66
2018-08-07T03:20:13.517Z,22.66
2018-08-07T03:23:16.527Z,22.36
2018-08-07T03:26:19.490Z,22.31
2018-08-07T03:29:22.410Z,22.71
2018-08-07T03:32:25.353Z,22.61
2018-08-07T03:35:28.287Z,22.08
2018-08-07T03:38:31.241Z,22.38
2018-08-07T03:41:34.200Z,22.52
2018-08-07T03:44:37.209Z,22.27
2018-08-07T03:47:40.365Z,22.19
2018-08-07T03:50:43.376Z,22.58
2018-08-07T03:53:46.360Z,22.51
2018-08-07T03:56:49.313Z,22.42
2018-08-07T03:59:52.256Z,22.07
2018-08-07T04:02:55.197Z,22.41
2018-08-07T04:05:58.136Z,22.49
2018-08-07T04:09:01.118Z,22.20
2018-08-07T04:12:04.269Z,22.40
2018-08-07T04:15:10.193Z,22.37
2018-08-07T04:18:13.176Z,22.05
2018-08-07T04:21:16.177Z,22.14
2018-08-07T04:24:19.107Z,22.08
2018-08-07T04:27:22.062Z,22.20
2018-08-07T04:30:25.046Z,22.39
2018-08-07T04:33:27.980Z,22.59
2018-08-07T04:36:30.969Z,22.48
2018-08-07T04:39:34.043Z,22.17
2018-08-07T04:42:37.997Z,22.23
2018-08-07T04:45:41.125Z,22.33
2018-08-07T04:48:44.124Z,22.42
2018-08-07T04:51:47.124Z,22.10
2018-08-07T04:54:50.085Z,22.34
2018-08-07T04:57:53.093Z,22.29
2018-08-07T05:00:57.525Z,22.25
2018-08-07T05:04:00.475Z,22.27
2018-08-07T05:07:03.573Z,22.60
2018-08-07T05:10:11.592Z,22.30
2018-08-07T05:13:14.535Z,22.51
2018-08-07T05:16:17.490Z,22.57
2018-08-07T05:19:20.420Z,22.34
2018-08-07T05:22:23.344Z,22.11
2018-08-07T05:25:26.228Z,22.32
2018-08-07T05:28:29.228Z,22.29
2018-08-07T05:31:32.216Z,22.30
2018-08-07T05:34:35.265Z,22.59
2018-08-07T05:37:38.511Z,22.56
2018-08-07T05:40:41.584Z,22.53
2018-08-07T05:43:44.582Z,22.83
2018-08-07T05:46:47.602Z,22.66
2018-08-07T05:49:50.629Z,22.55
2018-08-07T05:52:53.562Z,22.88
2018-08-07T05:55:56.477Z,22.92
2018-08-07T05:58:59.503Z,22.97
2018-08-07T06:02:02.883Z,23.02
2018-08-07T06:05:06.818Z,23.01
2018-08-07T06:08:09.920Z,23.01
2018-08-07T06:11:12.967Z,23.02
2018-08-07T06:14:15.966Z,23.04
2018-08-07T06:17:19.026Z,22.99
2018-08-07T06:20:22.029Z,23.13
2018-08-07T06:23:24.993Z,23.20
2018-08-07T06:26:27.955Z,23.21
2018-08-07T06:29:31.080Z,23.21
2018-08-07T06:32:40.855Z,23.27
2018-08-07T06:35:43.914Z,23.35
2018-08-07T06:38:46.942Z,23.36
2018-08-07T06:41:49.922Z,23.50
2018-08-07T06:44:52.840Z,23.54
2018-08-07T06:47:55.721Z,23.62
2018-08-07T06:50:58.720Z,23.65
2018-08-07T06:54:01.754Z,23.76
2018-08-07T06:57:05.357Z,23.77
2018-08-07T07:00:13.141Z,23.79
2018-08-07T07:03:16.090Z,23.84
2018-08-07T07:06:18.997Z,23.97
2018-08-07T07:09:22.052Z,24.02
2018-08-07T07:12:25.788Z,24.14
2018-08-07T07:15:29.700Z,24.24
2018-08-07T07:18:33.284Z,24.39
2018-08-07T07:21:36.353Z,24.56
2018-08-07T07:24:39.401Z,24.59
2018-08-07T07:27:42.514Z,24.75
2018-08-07T07:30:45.664Z,24.85
2018-08-07T07:33:48.737Z,24.92
2018-08-07T07:36:54.865Z,25.05
2018-08-07T07:39:58.145Z,25.20
2018-08-07T07:43:01.662Z,25.33
2018-08-07T07:46:05.192Z,25.53
2018-08-07T07:49:08.427Z,25.65
2018-08-07T07:52:11.512Z,25.70
2018-08-07T07:55:16.262Z,25.84
2018-08-07T07:58:19.333Z,25.95
2018-08-07T08:01:22.474Z,26.06
2018-08-07T08:04:25.562Z,26.20
2018-08-07T08:07:28.616Z,26.24
2018-08-07T08:10:31.689Z,26.32
2018-08-07T08:13:34.949Z,26.39
2018-08-07T08:16:38.354Z,26.45
2018-08-07T08:19:41.470Z,26.53
2018-08-07T08:22:44.577Z,26.58
2018-08-07T08:25:47.653Z,26.70
2018-08-07T08:28:51.104Z,26.80
2018-08-07T08:31:54.088Z,26.85
2018-08-07T08:34:57.314Z,26.92
2018-08-07T08:38:00.347Z,26.98
2018-08-07T08:41:03.467Z,27.08
2018-08-07T08:44:07.116Z,27.44
2018-08-07T08:47:10.226Z,27.46
2018-08-07T08:50:15.459Z,27.53
2018-08-07T08:53:18.533Z,27.63
2018-08-07T08:57:46.137Z,27.62
2018-08-07T09:00:49.189Z,28.29
2018-08-07T09:03:52.661Z,28.31
2018-08-07T09:06:55.645Z,28.62
2018-08-07T09:09:58.810Z,28.51
2018-08-07T09:13:02.265Z,28.78
2018-08-07T09:16:05.489Z,29.19
2018-08-07T09:19:08.669Z,28.93
2018-08-07T09:22:11.767Z,28.88
2018-08-07T09:25:14.982Z,29.73
2018-08-07T09:28:17.921Z,29.63
2018-08-07T09:31:20.977Z,29.64
2018-08-07T09:34:23.988Z,29.98
2018-08-07T09:37:26.957Z,30.13
2018-08-07T09:40:30.754Z,30.32
2018-08-07T09:43:33.917Z,30.33
2018-08-07T09:46:37.343Z,30.30
2018-08-07T09:49:40.657Z,30.58
2018-08-07T09:52:44.167Z,30.34
2018-08-07T09:55:47.180Z,30.50
2018-08-07T09:58:50.194Z,30.01
2018-08-07T10:01:59.677Z,30.50
2018-08-07T10:05:02.855Z,30.26
2018-08-07T10:08:05.981Z,30.74
2018-08-07T10:11:09.138Z,30.86
2018-08-07T10:14:12.343Z,31.24
2018-08-07T10:17:15.449Z,31.43
2018-08-07T10:20:18.694Z,31.04
2018-08-07T10:23:21.898Z,31.39
2018-08-07T10:26:25.031Z,30.82
2018-08-07T10:29:28.141Z,30.36
2018-08-07T10:32:31.351Z,30.65
2018-08-07T10:35:34.542Z,30.93
2018-08-07T10:38:37.722Z,31.71
2018-08-07T10:41:41.514Z,31.05
2018-08-07T10:44:44.619Z,31.64
2018-08-07T10:47:47.828Z,31.43
2018-08-07T10:50:50.923Z,31.58
2018-08-07T10:53:54.126Z,31.33
2018-08-07T10:56:57.330Z,31.81
2018-08-07T11:00:00.477Z,32.02
2018-08-07T11:03:03.755Z,32.44
2018-08-07T11:06:06.880Z,32.19
2018-08-07T11:09:13.363Z,32.61
2018-08-07T11:12:16.548Z,31.87
2018-08-07T11:15:23.559Z,32.10
2018-08-07T11:18:26.650Z,31.75
2018-08-07T11:21:29.841Z,31.90
2018-08-07T11:24:33.046Z,31.48
2018-08-07T11:27:36.160Z,31.65
2018-08-07T11:30:39.299Z,32.46
2018-08-07T11:33:42.488Z,32.76
2018-08-07T11:36:45.626Z,33.02
2018-08-07T11:39:48.827Z,32.27
2018-08-07T11:42:52.691Z,32.92
2018-08-07T11:45:55.850Z,33.52
2018-08-07T11:48:59.064Z,33.03
2018-08-07T11:52:02.227Z,33.19
2018-08-07T11:55:05.802Z,33.01
2018-08-07T11:58:08.967Z,33.75
2018-08-07T12:01:12.186Z,33.27
2018-08-07T12:04:15.374Z,33.30
2018-08-07T12:07:18.521Z,33.97
2018-08-07T12:10:21.726Z,32.92
2018-08-07T12:13:24.909Z,32.81
2018-08-07T12:16:28.090Z,32.97
2018-08-07T12:19:31.328Z,34.10
2018-08-07T12:22:34.609Z,34.24
2018-08-07T12:25:37.995Z,33.79
2018-08-07T12:28:41.180Z,34.13
2018-08-07T12:31:44.472Z,34.79
2018-08-07T12:34:47.746Z,34.07
2018-08-07T12:37:51.026Z,34.38
2018-08-07T12:40:54.241Z,34.67
2018-08-07T12:43:57.640Z,34.95
2018-08-07T12:47:01.132Z,34.80
2018-08-07T12:50:07.179Z,35.14
2018-08-07T12:53:11.787Z,34.58
2018-08-07T12:56:15.814Z,33.56
2018-08-07T12:59:19.413Z,33.10
2018-08-07T13:02:25.486Z,33.76
2018-08-07T13:05:29.754Z,33.50
2018-08-07T13:08:33.303Z,33.31
2018-08-07T13:11:37.001Z,33.65
2018-08-07T13:14:40.481Z,33.55
2018-08-07T13:17:44.526Z,33.33
2018-08-07T13:20:48.061Z,33.51
2018-08-07T13:23:51.876Z,33.52
2018-08-07T13:26:55.069Z,33.70
2018-08-07T13:29:58.594Z,33.85
2018-08-07T13:33:02.048Z,33.64
2018-08-07T13:36:05.799Z,33.50
2018-08-07T13:39:10.349Z,33.75
2018-08-07T13:42:15.434Z,33.58
2018-08-07T13:45:23.602Z,33.70
2018-08-07T13:48:27.884Z,33.63
2018-08-07T13:51:31.278Z,33.84
2018-08-07T13:54:34.726Z,33.64
2018-08-07T13:57:38.501Z,34.06
2018-08-07T14:00:42.758Z,33.90
2018-08-07T14:03:46.161Z,34.06
2018-08-07T14:06:49.904Z,33.98
2018-08-07T14:09:53.309Z,33.97
2018-08-07T14:12:56.754Z,33.92
2018-08-07T14:16:00.227Z,33.97
2018-08-07T14:19:03.732Z,34.19
2018-08-07T14:22:07.935Z,34.05
2018-08-07T14:25:22.109Z,33.87
2018-08-07T14:28:25.835Z,34.24
2018-08-07T14:31:29.353Z,34.05
2018-08-07T14:34:32.633Z,33.89
2018-08-07T14:37:36.017Z,34.02
2018-08-07T14:40:39.565Z,34.13
2018-08-07T14:43:42.781Z,34.07
2018-08-07T14:46:46.072Z,34.15
2018-08-07T14:49:49.264Z,34.09
2018-08-07T14:52:52.689Z,34.01
2018-08-07T14:55:55.927Z,34.16
2018-08-07T14:58:59.151Z,34.06
2018-08-07T15:02:02.402Z,33.85
2018-08-07T15:05:05.746Z,33.92
2018-08-07T15:08:09.109Z,33.78
2018-08-07T15:11:12.331Z,33.82
2018-08-07T15:14:15.530Z,33.82
2018-08-07T15:17:18.736Z,33.98
2018-08-07T15:20:24.875Z,33.87
2018-08-07T15:23:28.046Z,33.86
2018-08-07T15:26:31.184Z,33.91
2018-08-07T15:29:34.422Z,33.85
2018-08-07T15:32:38.158Z,33.83
2018-08-07T15:35:41.272Z,33.97
2018-08-07T15:38:44.454Z,33.78
2018-08-07T15:41:47.632Z,33.77
2018-08-07T15:44:50.819Z,33.74
2018-08-07T15:47:54.098Z,33.68
2018-08-07T15:50:57.246Z,33.56
2018-08-07T15:54:00.469Z,33.66
2018-08-07T15:57:03.533Z,33.58
2018-08-07T16:00:10.234Z,33.51
2018-08-07T16:03:13.489Z,33.64
2018-08-07T16:06:16.727Z,33.44
2018-08-07T16:09:20.082Z,33.41
2018-08-07T16:12:23.179Z,33.32
2018-08-07T16:15:26.424Z,33.29
2018-08-07T16:18:29.585Z,33.21
2018-08-07T16:21:32.781Z,33.17
2018-08-07T16:24:35.967Z,33.06
2018-08-07T16:27:40.706Z,33.02
2018-08-07T16:30:43.930Z,33.02
2018-08-07T16:33:47.139Z,32.90
2018-08-07T16:36:50.396Z,32.99
2018-08-07T16:39:53.517Z,33.02
2018-08-07T16:42:56.628Z,33.05
2018-08-07T16:45:59.731Z,32.98
2018-08-07T16:49:02.969Z,32.98
2018-08-07T16:52:06.132Z,32.95
2018-08-07T16:55:10.209Z,32.90
2018-08-07T16:58:13.342Z,32.87
2018-08-07T17:01:16.513Z,32.76
2018-08-07T17:04:19.918Z,32.78
2018-08-07T17:07:23.365Z,32.94
2018-08-07T17:10:28.345Z,32.82
2018-08-07T17:13:31.863Z,32.81
2018-08-07T17:16:35.565Z,32.83
2018-08-07T17:19:38.881Z,32.85
2018-08-07T17:22:43.110Z,32.76
2018-08-07T17:25:46.659Z,32.91
2018-08-07T17:28:50.812Z,32.79
2018-08-07T17:31:55.103Z,32.66
2018-08-07T17:34:58.898Z,32.56
2018-08-07T17:38:02.182Z,32.68
2018-08-07T17:41:05.657Z,32.60
2018-08-07T17:44:09.295Z,32.50
2018-08-07T17:47:13.120Z,32.39
2018-08-07T17:50:20.041Z,32.41
2018-08-07T17:53:23.510Z,32.46
2018-08-07T17:56:27.333Z,32.46
2018-08-07T17:59:31.065Z,32.28
2018-08-07T18:02:34.864Z,32.26
2018-08-07T18:05:38.754Z,32.20
2018-08-07T18:08:42.598Z,31.95
2018-08-07T18:11:46.262Z,31.83
2018-08-07T18:14:49.751Z,31.73
2018-08-07T18:17:53.378Z,31.61
2018-08-07T18:20:57.324Z,31.33
2018-08-07T18:24:00.965Z,31.32
2018-08-07T18:27:04.544Z,31.34
2018-08-07T18:30:11.432Z,31.18
2018-08-07T18:33:15.134Z,31.09
2018-08-07T18:36:18.928Z,30.88
2018-08-07T18:39:22.522Z,30.80
2018-08-07T18:42:25.910Z,31.02
2018-08-07T18:45:29.544Z,30.65
2018-08-07T18:48:33.397Z,30.66
2018-08-07T18:51:37.252Z,30.43
2018-08-07T18:55:12.792Z,30.73
2018-08-07T18:58:16.223Z,30.71
2018-08-07T19:01:19.327Z,30.61
2018-08-07T19:04:22.473Z,30.42
2018-08-07T19:07:25.856Z,30.40
2018-08-07T19:10:29.579Z,30.46
2018-08-07T19:13:32.885Z,30.46
2018-08-07T19:16:36.445Z,30.44
2018-08-07T19:19:39.562Z,30.38
2018-08-07T19:22:43.374Z,30.18
2018-08-07T19:25:47.525Z,30.10
2018-08-07T19:28:50.826Z,30.00
2018-08-07T19:31:54.685Z,30.03
2018-08-07T19:34:58.178Z,29.96
2018-08-07T19:38:01.544Z,29.88
2018-08-07T19:41:06.571Z,29.75
2018-08-07T19:44:10.495Z,29.72
2018-08-07T19:47:14.200Z,29.72
2018-08-07T19:50:19.732Z,29.70
2018-08-07T19:53:23.432Z,29.62
2018-08-07T19:56:26.564Z,29.72
2018-08-07T19:59:30.148Z,29.59
2018-08-07T20:02:33.830Z,29.52
2018-08-07T20:05:39.961Z,29.44
2018-08-07T20:08:43.482Z,29.48
2018-08-07T20:11:46.840Z,29.47
2018-08-07T20:14:49.888Z,29.50
2018-08-07T20:17:54.044Z,29.41
2018-08-07T20:20:57.118Z,29.47
2018-08-07T20:24:00.259Z,29.47
2018-08-07T20:27:03.814Z,29.41
2018-08-07T20:30:14.612Z,29.35
2018-08-07T20:33:17.576Z,29.35
2018-08-07T20:36:21.163Z,29.41
2018-08-07T20:39:24.240Z,29.05
2018-08-07T20:42:27.329Z,28.29
2018-08-07T20:45:30.634Z,28.39
2018-08-07T20:48:35.880Z,28.34
2018-08-07T20:51:39.118Z,28.39
2018-08-07T20:54:42.328Z,28.11
2018-08-07T20:57:45.509Z,27.99
2018-08-07T21:00:48.766Z,27.96
2018-08-07T21:03:51.975Z,28.21
2018-08-07T21:06:55.139Z,28.12
2018-08-07T21:09:58.229Z,28.33
2018-08-07T21:13:01.403Z,28.07
2018-08-07T21:16:04.588Z,28.06
2018-08-07T21:19:07.861Z,27.71
2018-08-07T21:22:11.045Z,28.23
2018-08-07T21:25:16.781Z,28.02
2018-08-07T21:28:26.704Z,28.00
2018-08-07T21:31:29.922Z,28.02
2018-08-07T21:34:33.024Z,28.06
2018-08-07T21:37:36.115Z,28.03
2018-08-07T21:40:39.214Z,27.92
2018-08-07T21:43:42.296Z,27.89
2018-08-07T21:46:45.397Z,28.00
2018-08-07T21:49:55.237Z,28.17
2018-08-07T21:52:58.349Z,27.94
2018-08-07T21:56:01.456Z,28.11
2018-08-07T21:59:05.066Z,27.97
2018-08-07T22:02:08.186Z,28.11
2018-08-07T22:05:11.429Z,28.12
2018-08-07T22:08:15.694Z,28.29
2018-08-07T22:11:18.850Z,28.48
2018-08-07T22:14:21.903Z,28.34
2018-08-07T22:17:24.987Z,28.49
2018-08-07T22:20:28.110Z,28.51
2018-08-07T22:23:31.199Z,28.86
2018-08-07T22:26:34.309Z,29.17
2018-08-07T22:29:37.400Z,29.45
2018-08-07T22:32:40.530Z,29.30
2018-08-07T22:35:43.710Z,29.42
2018-08-07T22:38:46.849Z,29.47
2018-08-07T22:41:49.931Z,29.21
2018-08-07T22:44:53.031Z,29.20
2018-08-07T22:47:56.113Z,29.31
2018-08-07T22:50:59.148Z,29.59
2018-08-07T22:54:02.314Z,29.42
2018-08-07T22:57:09.645Z,29.46
2018-08-07T23:00:16.929Z,29.53
2018-08-07T23:03:19.926Z,29.25
2018-08-07T23:06:23.082Z,28.96
2018-08-07T23:09:26.146Z,29.25
2018-08-07T23:12:29.225Z,29.01
2018-08-07T23:15:32.346Z,29.13
2018-08-07T23:18:35.468Z,28.72
2018-08-07T23:21:38.569Z,28.99
2018-08-07T23:24:41.768Z,28.88
2018-08-07T23:27:44.893Z,28.96
2018-08-07T23:30:47.986Z,28.86
2018-08-07T23:33:51.137Z,28.97
2018-08-07T23:36:54.199Z,28.64
2018-08-07T23:39:57.360Z,28.77
2018-08-07T23:43:00.457Z,28.69
2018-08-07T23:46:03.585Z,28.71
2018-08-07T23:49:06.733Z,28.66
2018-08-07T23:52:09.826Z,28.60
2018-08-07T23:55:12.908Z,28.91
2018-08-07T23:58:15.988Z,28.68
